createdAt,value
2023-05-24T00:00:33.675Z,15.90
2023-05-24T00:03:39.512Z,15.90
2023-05-24T00:06:42.577Z,16.00
2023-05-24T00:09:45.520Z,15.90
2023-05-24T00:12:48.431Z,15.90
2023-05-24T00:15:52.782Z,15.90
2023-05-24T00:18:55.713Z,15.90
2023-05-24T00:21:58.669Z,15.90
2023-05-24T00:25:01.555Z,15.80
2023-05-24T00:28:04.747Z,15.90
2023-05-24T00:31:09.176Z,15.90
2023-05-24T00:34:12.099Z,15.90
2023-05-24T00:37:15.058Z,16.00
2023-05-24T00:40:18.035Z,16.00
2023-05-24T00:43:20.996Z,16.00
2023-05-24T00:46:29.731Z,16.00
2023-05-24T00:49:32.992Z,15.90
2023-05-24T00:52:36.353Z,15.90
2023-05-24T00:55:39.684Z,15.90
2023-05-24T00:58:43.281Z,15.90
2023-05-24T01:01:47.971Z,15.90
2023-05-24T01:04:50.908Z,15.90
2023-05-24T01:08:05.200Z,15.90
2023-05-24T01:11:17.748Z,15.90
2023-05-24T01:14:36.757Z,15.80
2023-05-24T01:17:51.775Z,15.80
2023-05-24T01:21:10.951Z,15.80
2023-05-24T01:24:23.697Z,15.80
2023-05-24T01:27:29.161Z,15.80
2023-05-24T01:30:32.398Z,15.80
2023-05-24T01:33:35.387Z,15.90
2023-05-24T01:36:38.268Z,15.80
2023-05-24T01:39:41.877Z,15.80
2023-05-24T01:42:53.324Z,15.80
2023-05-24T01:46:04.091Z,15.80
2023-05-24T01:49:14.555Z,15.80
2023-05-24T01:52:20.982Z,15.70
2023-05-24T01:55:24.266Z,15.80
2023-05-24T01:58:29.481Z,15.70
2023-05-24T02:01:32.928Z,15.70
2023-05-24T02:04:35.930Z,15.70
2023-05-24T02:07:39.204Z,15.70
2023-05-24T02:10:42.512Z,15.70
2023-05-24T02:13:46.930Z,15.70
2023-05-24T02:16:50.931Z,15.70
2023-05-24T02:19:54.093Z,15.70
2023-05-24T02:22:57.538Z,15.70
2023-05-24T02:26:01.396Z,15.60
2023-05-24T02:29:06.091Z,15.60
2023-05-24T02:32:09.234Z,15.60
2023-05-24T02:35:12.206Z,15.60
2023-05-24T02:38:15.093Z,15.60
2023-05-24T02:41:18.234Z,15.60
2023-05-24T02:44:22.515Z,15.60
2023-05-24T02:47:26.767Z,15.60
2023-05-24T02:50:29.732Z,15.60
2023-05-24T02:53:32.895Z,15.50
2023-05-24T02:56:35.858Z,15.50
2023-05-24T02:59:40.198Z,15.50
2023-05-24T03:02:43.638Z,15.50
2023-05-24T03:05:46.721Z,15.50
2023-05-24T03:08:50.176Z,15.50
2023-05-24T03:11:54.500Z,15.50
2023-05-24T03:14:58.810Z,15.50
2023-05-24T03:18:01.767Z,15.40
2023-05-24T03:21:04.953Z,15.40
2023-05-24T03:24:09.568Z,15.30
2023-05-24T03:27:12.491Z,15.30
2023-05-24T03:30:16.962Z,15.30
2023-05-24T03:33:19.901Z,15.30
2023-05-24T03:36:22.901Z,15.30
2023-05-24T03:39:25.840Z,15.30
2023-05-24T03:42:28.744Z,15.20
2023-05-24T03:45:39.004Z,15.20
2023-05-24T03:48:43.184Z,15.20
2023-05-24T03:51:46.438Z,15.20
2023-05-24T03:54:49.331Z,15.20
2023-05-24T03:57:52.290Z,15.20
2023-05-24T04:00:56.550Z,15.10
2023-05-24T04:03:59.558Z,15.10
2023-05-24T04:07:03.142Z,15.10
2023-05-24T04:10:07.469Z,15.00
2023-05-24T04:13:10.393Z,15.00
2023-05-24T04:16:14.767Z,14.90
2023-05-24T04:19:17.695Z,14.90
2023-05-24T04:22:20.755Z,14.90
2023-05-24T04:25:24.193Z,14.90
2023-05-24T04:28:27.112Z,14.90
2023-05-24T04:31:33.399Z,14.90
2023-05-24T04:34:36.636Z,14.90
2023-05-24T04:37:39.954Z,14.90
2023-05-24T04:40:43.133Z,14.80
2023-05-24T04:43:46.265Z,14.70
2023-05-24T04:46:50.589Z,14.70
2023-05-24T04:49:53.734Z,14.70
2023-05-24T04:52:56.663Z,14.70
2023-05-24T04:55:59.650Z,14.70
2023-05-24T04:59:02.674Z,14.80
2023-05-24T05:02:07.105Z,14.80
2023-05-24T05:05:10.472Z,14.80
2023-05-24T05:08:14.048Z,14.80
2023-05-24T05:11:18.663Z,14.80
2023-05-24T05:14:21.545Z,14.80
2023-05-24T05:17:25.921Z,14.80
2023-05-24T05:20:28.899Z,14.80
2023-05-24T05:23:31.934Z,14.80
2023-05-24T05:26:35.597Z,14.80
2023-05-24T05:29:38.809Z,14.80
2023-05-24T05:32:43.241Z,14.80
2023-05-24T05:35:46.226Z,14.70
2023-05-24T05:38:49.130Z,14.70
2023-05-24T05:41:52.057Z,14.70
2023-05-24T05:44:54.980Z,14.70
2023-05-24T05:47:59.237Z,14.70
2023-05-24T05:51:02.399Z,14.70
2023-05-24T05:54:05.665Z,14.70
2023-05-24T05:57:11.408Z,14.80
2023-05-24T06:00:15.195Z,14.80
2023-05-24T06:03:20.708Z,14.80
2023-05-24T06:06:23.661Z,14.80
2023-05-24T06:09:26.631Z,14.80
2023-05-24T06:12:29.504Z,14.90
2023-05-24T06:15:33.322Z,14.90
2023-05-24T08:00:10.336Z,16.10
2023-05-24T08:03:14.675Z,16.10
2023-05-24T08:06:19.369Z,16.20
2023-05-24T08:09:22.631Z,16.20
2023-05-24T08:12:26.149Z,16.30
2023-05-24T08:15:29.169Z,16.30
2023-05-24T08:18:32.037Z,16.30
2023-05-24T08:21:37.194Z,16.30
2023-05-24T08:24:40.058Z,16.20
2023-05-24T08:27:43.457Z,16.20
2023-05-24T08:30:46.515Z,16.20
2023-05-24T08:33:50.459Z,16.10
2023-05-24T08:36:55.128Z,16.10
2023-05-24T08:39:58.021Z,16.10
2023-05-24T08:43:02.220Z,15.90
2023-05-24T08:46:06.258Z,15.90
2023-05-24T08:49:12.646Z,15.80
2023-05-24T08:52:17.742Z,15.80
2023-05-24T08:55:21.230Z,15.70
2023-05-24T08:58:24.381Z,15.70
2023-05-24T09:01:30.637Z,15.60
2023-05-24T09:04:36.491Z,15.70
2023-05-24T09:07:41.826Z,15.80
2023-05-24T09:13:57.244Z,15.90
2023-05-24T09:17:00.840Z,16.00
2023-05-24T09:20:06.937Z,16.10
2023-05-24T09:23:14.351Z,16.10
2023-05-24T09:26:18.230Z,16.20
2023-05-24T09:29:24.491Z,16.20
2023-05-24T09:32:28.739Z,16.20
2023-05-24T09:35:31.979Z,16.20
2023-05-24T09:38:36.831Z,16.20
2023-05-24T09:41:40.313Z,16.20
2023-05-24T09:44:43.493Z,16.20
2023-05-24T09:47:46.557Z,16.10
2023-05-24T09:51:07.532Z,16.10
2023-05-24T09:54:13.500Z,16.10
2023-05-24T09:57:17.279Z,16.10
2023-05-24T10:00:23.924Z,16.10
2023-05-24T10:03:27.328Z,16.10
2023-05-24T10:06:33.179Z,16.10
2023-05-24T10:09:37.468Z,16.00
2023-05-24T10:12:43.971Z,16.00
2023-05-24T10:15:47.057Z,16.10
